createdAt,value
2022-08-29T00:01:31.113Z,5.32
2022-08-29T00:03:59.173Z,4.35
2022-08-29T00:06:27.130Z,5.90
2022-08-29T00:08:54.803Z,3.88
2022-08-29T00:11:22.667Z,5.10
2022-08-29T00:13:50.527Z,5.07
2022-08-29T00:16:18.787Z,5.75
2022-08-29T00:18:46.558Z,4.35
2022-08-29T00:21:14.207Z,4.70
2022-08-29T00:23:41.866Z,3.92
2022-08-29T00:26:09.481Z,4.20
2022-08-29T00:28:37.225Z,5.88
2022-08-29T00:31:04.870Z,6.43
2022-08-29T00:33:32.886Z,4.72
2022-08-29T00:36:00.611Z,4.72
2022-08-29T00:38:29.055Z,6.88
2022-08-29T00:40:57.194Z,5.95
2022-08-29T00:43:27.460Z,6.30
2022-08-29T00:46:07.151Z,8.10
2022-08-29T00:48:35.304Z,6.15
2022-08-29T00:51:05.855Z,7.55
2022-08-29T00:53:39.247Z,8.40
2022-08-29T00:56:09.114Z,6.78
2022-08-29T00:58:41.249Z,9.38
2022-08-29T01:01:09.342Z,9.77
2022-08-29T01:03:42.722Z,11.85
2022-08-29T01:06:13.558Z,13.80
2022-08-29T01:08:41.378Z,13.05
2022-08-29T01:11:27.849Z,11.23
2022-08-29T01:13:55.632Z,13.65
2022-08-29T01:16:24.558Z,10.85
2022-08-29T01:18:54.033Z,11.63
2022-08-29T01:21:21.636Z,10.65
2022-08-29T01:23:59.747Z,10.95
2022-08-29T01:26:28.495Z,10.15
2022-08-29T01:28:56.874Z,11.27
2022-08-29T01:31:37.421Z,10.88
2022-08-29T01:34:17.932Z,10.75
2022-08-29T01:36:47.165Z,11.48
2022-08-29T01:39:14.888Z,11.63
2022-08-29T01:41:43.441Z,11.13
2022-08-29T01:44:14.215Z,12.55
2022-08-29T01:46:42.069Z,14.30
2022-08-29T01:49:11.089Z,12.85
2022-08-29T01:51:38.819Z,10.30
2022-08-29T01:54:07.332Z,13.20
2022-08-29T01:56:36.739Z,13.30
2022-08-29T01:59:05.498Z,13.50
2022-08-29T02:01:34.674Z,10.10
2022-08-29T02:04:02.474Z,11.18
2022-08-29T02:06:30.169Z,10.95
2022-08-29T02:08:57.802Z,10.30
2022-08-29T02:11:25.415Z,11.02
2022-08-29T02:13:57.910Z,11.43
2022-08-29T02:16:26.357Z,9.75
2022-08-29T02:18:54.314Z,9.38
2022-08-29T02:21:22.717Z,10.32
2022-08-29T02:23:51.115Z,9.27
2022-08-29T02:26:19.984Z,10.45
2022-08-29T02:28:50.449Z,8.60
2022-08-29T02:31:19.156Z,7.78
2022-08-29T02:33:46.840Z,10.90
2022-08-29T02:36:14.947Z,9.05
2022-08-29T02:38:43.075Z,11.88
2022-08-29T02:41:14.130Z,10.95
2022-08-29T02:43:42.525Z,8.23
2022-08-29T02:46:13.851Z,9.52
2022-08-29T02:48:41.603Z,9.35
2022-08-29T02:51:27.861Z,10.48
2022-08-29T02:53:55.789Z,12.55
2022-08-29T02:56:23.445Z,10.20
2022-08-29T02:58:51.107Z,9.65
2022-08-29T03:01:20.479Z,13.25
2022-08-29T03:03:48.525Z,10.38
2022-08-29T03:06:16.606Z,12.70
2022-08-29T03:08:44.238Z,8.90
2022-08-29T03:11:12.141Z,13.18
2022-08-29T03:13:39.780Z,12.82
2022-08-29T03:16:07.463Z,10.45
2022-08-29T03:18:35.094Z,9.95
2022-08-29T03:21:02.858Z,11.70
2022-08-29T03:23:30.581Z,13.82
2022-08-29T03:25:58.238Z,10.75
2022-08-29T03:28:25.895Z,12.23
2022-08-29T03:30:53.573Z,12.13
2022-08-29T03:33:21.265Z,13.23
2022-08-29T03:35:48.888Z,12.40
2022-08-29T03:38:17.501Z,12.63
2022-08-29T03:40:45.120Z,8.57
2022-08-29T03:43:12.755Z,8.70
2022-08-29T03:45:40.378Z,7.82
2022-08-29T03:48:08.144Z,10.57
2022-08-29T03:50:35.857Z,12.18
2022-08-29T03:53:03.824Z,8.32
2022-08-29T03:55:31.438Z,8.65
2022-08-29T03:57:59.098Z,11.45
2022-08-29T04:00:26.802Z,9.43
2022-08-29T04:02:55.614Z,9.73
2022-08-29T04:05:23.425Z,9.27
2022-08-29T04:07:52.637Z,9.98
2022-08-29T04:10:39.198Z,12.10
2022-08-29T04:13:07.837Z,10.13
2022-08-29T04:15:36.104Z,11.45
2022-08-29T04:18:13.341Z,13.35
2022-08-29T04:20:45.044Z,13.35
2022-08-29T04:23:14.019Z,13.23
2022-08-29T04:25:43.287Z,15.85
2022-08-29T04:28:12.183Z,13.65
2022-08-29T04:30:40.355Z,13.65
2022-08-29T04:33:07.978Z,16.27
2022-08-29T04:35:37.292Z,12.40
2022-08-29T04:38:04.901Z,14.55
2022-08-29T04:40:32.992Z,13.38
2022-08-29T04:43:00.639Z,10.70
2022-08-29T04:45:28.354Z,17.08
2022-08-29T04:47:55.974Z,11.20
2022-08-29T04:50:24.279Z,11.18
2022-08-29T04:52:55.729Z,11.55
2022-08-29T04:55:25.663Z,8.48
2022-08-29T04:57:56.480Z,9.77
2022-08-29T05:00:26.590Z,14.80
2022-08-29T05:02:55.227Z,14.15
2022-08-29T05:05:23.027Z,12.52
2022-08-29T05:07:50.698Z,11.13
2022-08-29T05:10:20.017Z,9.43
2022-08-29T05:12:48.255Z,13.85
2022-08-29T05:15:16.450Z,14.55
2022-08-29T05:17:44.422Z,13.88
2022-08-29T05:20:12.557Z,15.95
2022-08-29T05:22:40.407Z,13.25
2022-08-29T05:25:08.436Z,12.85
2022-08-29T05:27:36.095Z,16.05
2022-08-29T05:30:04.886Z,17.65
2022-08-29T05:32:32.593Z,11.93
2022-08-29T05:35:00.292Z,9.88
2022-08-29T05:37:27.965Z,15.57
2022-08-29T05:39:56.187Z,14.20
2022-08-29T05:42:24.106Z,12.95
2022-08-29T05:44:52.663Z,14.85
2022-08-29T05:47:20.641Z,11.52
2022-08-29T05:49:48.792Z,13.68
2022-08-29T05:52:18.054Z,10.95
2022-08-29T05:54:46.330Z,13.13
2022-08-29T05:57:18.989Z,9.98
2022-08-29T05:59:51.208Z,14.48
2022-08-29T06:04:47.058Z,16.67
2022-08-29T06:07:14.791Z,11.60
2022-08-29T06:09:43.183Z,9.52
2022-08-29T06:12:11.623Z,10.23
2022-08-29T06:14:39.426Z,10.32
2022-08-29T06:17:08.067Z,9.43
2022-08-29T06:19:39.471Z,15.45
2022-08-29T06:22:09.733Z,11.57
2022-08-29T06:24:38.477Z,14.38
2022-08-29T06:27:06.344Z,13.02
2022-08-29T06:29:43.158Z,11.65
2022-08-29T06:32:11.911Z,13.13
2022-08-29T06:34:39.640Z,10.60
2022-08-29T06:37:07.327Z,10.73
2022-08-29T06:39:34.993Z,8.82
2022-08-29T06:42:02.822Z,9.57
2022-08-29T06:44:31.976Z,10.45
2022-08-29T06:46:59.822Z,9.52
2022-08-29T06:49:27.832Z,9.88
2022-08-29T06:51:58.210Z,8.82
2022-08-29T06:54:28.022Z,12.48
2022-08-29T06:56:56.857Z,10.05
2022-08-29T06:59:24.561Z,13.27
2022-08-29T07:01:52.470Z,9.40
2022-08-29T07:04:21.065Z,10.93
2022-08-29T07:06:49.270Z,8.23
2022-08-29T07:09:17.353Z,12.05
2022-08-29T07:11:44.984Z,9.98
2022-08-29T07:14:13.057Z,13.18
2022-08-29T07:16:41.679Z,8.95
2022-08-29T07:19:10.467Z,13.90
2022-08-29T07:21:38.576Z,11.77
2022-08-29T07:24:06.874Z,8.43
2022-08-29T07:26:36.846Z,10.75
2022-08-29T07:29:06.914Z,8.10
2022-08-29T07:31:34.659Z,9.88
2022-08-29T07:34:03.284Z,12.10
2022-08-29T07:36:34.383Z,11.82
2022-08-29T07:39:03.177Z,10.60
2022-08-29T07:41:30.848Z,12.27
2022-08-29T07:43:58.616Z,14.32
2022-08-29T07:46:26.989Z,11.77
2022-08-29T07:48:55.103Z,11.25
2022-08-29T07:51:23.848Z,8.00
2022-08-29T07:53:52.434Z,8.55
2022-08-29T07:56:25.113Z,8.73
2022-08-29T07:58:53.454Z,11.13
2022-08-29T08:01:21.980Z,11.05
2022-08-29T08:03:51.022Z,12.10
2022-08-29T08:06:19.657Z,15.10
2022-08-29T08:08:47.766Z,11.73
2022-08-29T08:11:15.403Z,12.13
2022-08-29T08:13:43.205Z,17.17
2022-08-29T08:16:14.897Z,14.52
2022-08-29T08:21:10.452Z,9.95
2022-08-29T08:23:38.542Z,12.10
2022-08-29T08:26:06.594Z,10.70
2022-08-29T08:28:34.605Z,11.15
2022-08-29T08:31:06.187Z,9.93
2022-08-29T08:33:35.409Z,13.10
2022-08-29T08:36:04.414Z,9.73
2022-08-29T08:38:32.017Z,8.02
2022-08-29T08:41:22.870Z,15.18
2022-08-29T08:43:57.042Z,10.70
2022-08-29T08:46:29.764Z,11.38
2022-08-29T08:49:00.509Z,7.68
2022-08-29T08:51:31.339Z,9.52
2022-08-29T08:53:59.636Z,11.07
2022-08-29T08:56:35.706Z,8.88
2022-08-29T08:59:15.648Z,10.18
2022-08-29T09:01:45.357Z,12.43
2022-08-29T09:04:30.937Z,9.32
2022-08-29T09:07:17.601Z,11.75
2022-08-29T09:09:51.254Z,8.98
2022-08-29T09:12:37.436Z,10.93
2022-08-29T09:15:13.904Z,12.20
2022-08-29T09:17:47.363Z,10.15
2022-08-29T09:20:26.141Z,11.77
2022-08-29T09:23:14.179Z,10.70
2022-08-29T09:25:41.994Z,10.95
2022-08-29T09:28:10.041Z,15.27
2022-08-29T09:30:39.665Z,11.65
2022-08-29T09:33:09.173Z,7.63
2022-08-29T09:35:37.362Z,9.23
2022-08-29T09:38:06.953Z,11.05
2022-08-29T09:40:43.424Z,10.10
2022-08-29T09:43:17.204Z,14.45
2022-08-29T09:46:02.892Z,11.30
2022-08-29T09:48:35.384Z,9.50
2022-08-29T09:51:13.930Z,12.77
2022-08-29T09:53:41.869Z,9.60
2022-08-29T09:56:12.735Z,10.05
2022-08-29T09:58:42.814Z,8.30
2022-08-29T10:01:16.746Z,10.63
2022-08-29T10:04:05.349Z,7.68
2022-08-29T10:06:34.948Z,11.35
2022-08-29T10:09:05.667Z,13.77
2022-08-29T10:11:36.088Z,12.48
2022-08-29T10:14:23.966Z,9.38
2022-08-29T10:17:17.069Z,9.20
2022-08-29T10:19:44.897Z,10.95
2022-08-29T10:22:12.566Z,11.10
2022-08-29T10:24:49.042Z,12.32
2022-08-29T10:27:25.667Z,10.00
2022-08-29T10:30:13.196Z,11.95
2022-08-29T10:32:40.828Z,11.35
2022-08-29T10:35:19.924Z,13.27
2022-08-29T10:37:56.611Z,10.75
2022-08-29T10:40:27.015Z,8.15
2022-08-29T10:43:14.033Z,11.63
2022-08-29T10:45:57.081Z,15.38
2022-08-29T10:48:30.515Z,11.32
2022-08-29T10:51:07.006Z,8.98
2022-08-29T10:53:37.208Z,10.70
2022-08-29T10:56:25.317Z,9.68
2022-08-29T10:58:56.372Z,9.00
2022-08-29T11:01:28.160Z,9.20
2022-08-29T11:04:01.978Z,9.10
2022-08-29T11:06:32.420Z,12.20
2022-08-29T11:09:08.673Z,6.60
2022-08-29T11:11:38.261Z,8.82
2022-08-29T11:14:26.299Z,9.15
2022-08-29T11:16:55.466Z,10.82
2022-08-29T11:19:41.763Z,7.70
2022-08-29T11:22:16.713Z,9.43
2022-08-29T11:24:47.338Z,7.43
2022-08-29T11:27:32.978Z,9.18
2022-08-29T11:30:08.254Z,11.35
2022-08-29T11:32:52.533Z,13.38
2022-08-29T11:35:20.649Z,6.78
2022-08-29T11:38:06.943Z,10.43
2022-08-29T11:41:29.110Z,7.88
2022-08-29T11:43:59.635Z,8.07
2022-08-29T11:46:38.658Z,6.88
2022-08-29T11:49:24.874Z,8.05
2022-08-29T11:51:55.557Z,5.47
2022-08-29T11:54:26.278Z,8.80
2022-08-29T11:57:05.819Z,7.93
2022-08-29T11:59:51.403Z,7.32
2022-08-29T12:02:28.148Z,7.65
2022-08-29T12:05:00.346Z,6.70
2022-08-29T12:07:40.249Z,6.00
2022-08-29T12:10:29.450Z,5.60
2022-08-29T12:13:03.763Z,7.93
2022-08-29T12:15:35.343Z,6.82
2022-08-29T12:18:09.746Z,8.82
2022-08-29T12:20:56.931Z,5.88
2022-08-29T12:23:31.933Z,7.68
2022-08-29T12:26:22.950Z,8.43
2022-08-29T12:28:58.562Z,7.57
2022-08-29T12:31:38.279Z,6.78
2022-08-29T12:34:05.946Z,6.38
2022-08-29T12:36:49.434Z,9.52
2022-08-29T12:39:35.624Z,7.57
2022-08-29T12:42:03.245Z,5.35
2022-08-29T12:44:38.669Z,6.50
2022-08-29T12:47:08.932Z,7.80
2022-08-29T12:49:48.490Z,6.47
2022-08-29T12:52:21.613Z,9.13
2022-08-29T12:54:53.177Z,5.95
2022-08-29T12:57:35.436Z,6.45
2022-08-29T13:00:06.180Z,9.32
2022-08-29T13:02:35.301Z,7.13
2022-08-29T13:05:03.923Z,7.40
2022-08-29T13:07:31.641Z,11.07
2022-08-29T13:10:00.712Z,11.13
2022-08-29T13:12:31.032Z,6.07
2022-08-29T13:15:01.786Z,7.63
2022-08-29T13:17:37.130Z,9.05
2022-08-29T13:20:23.491Z,8.73
2022-08-29T13:22:51.213Z,7.30
2022-08-29T13:25:19.441Z,6.28
2022-08-29T13:27:48.337Z,6.28
2022-08-29T13:30:23.622Z,6.03
2022-08-29T13:32:52.177Z,7.85
2022-08-29T13:35:21.494Z,6.57
2022-08-29T13:38:09.560Z,6.05
2022-08-29T13:40:45.715Z,6.13
2022-08-29T13:43:34.311Z,6.90
2022-08-29T13:46:05.048Z,8.13
2022-08-29T13:48:33.184Z,7.65
2022-08-29T13:51:06.674Z,6.97
2022-08-29T13:53:34.992Z,7.28
2022-08-29T13:56:02.850Z,6.05
2022-08-29T13:58:32.102Z,5.40
2022-08-29T14:01:00.188Z,7.93
2022-08-29T14:03:28.774Z,8.02
2022-08-29T14:05:58.240Z,6.30
2022-08-29T14:08:25.935Z,6.15
2022-08-29T14:10:53.618Z,7.85
2022-08-29T14:13:21.262Z,6.03
2022-08-29T14:15:49.093Z,7.55
2022-08-29T14:18:16.889Z,6.63
2022-08-29T14:20:44.604Z,5.82
2022-08-29T14:23:12.224Z,7.65
2022-08-29T14:25:39.905Z,7.95
2022-08-29T14:28:07.540Z,7.75
2022-08-29T14:30:35.155Z,7.18
2022-08-29T14:33:02.764Z,5.28
2022-08-29T14:35:31.574Z,7.65
2022-08-29T14:38:00.409Z,8.05
2022-08-29T14:40:28.888Z,7.38
2022-08-29T14:42:57.663Z,5.47
2022-08-29T14:45:25.633Z,5.40
2022-08-29T14:47:53.349Z,7.72
2022-08-29T14:50:21.393Z,9.07
2022-08-29T14:52:49.078Z,11.50
2022-08-29T14:55:16.840Z,7.22
2022-08-29T14:57:44.471Z,6.95
2022-08-29T15:00:14.806Z,6.32
2022-08-29T15:02:42.793Z,4.78
2022-08-29T15:05:10.876Z,7.28
2022-08-29T15:07:38.727Z,7.55
2022-08-29T15:10:07.455Z,8.43
2022-08-29T15:12:35.261Z,5.10
2022-08-29T15:15:02.954Z,6.60
2022-08-29T15:17:30.575Z,7.30
2022-08-29T15:22:45.838Z,4.45
2022-08-29T15:25:13.498Z,5.72
2022-08-29T15:27:41.825Z,6.55
2022-08-29T15:30:10.029Z,9.18
2022-08-29T15:32:39.033Z,7.55
2022-08-29T15:35:07.358Z,6.70
2022-08-29T15:37:41.909Z,7.38
2022-08-29T15:40:13.190Z,5.57
2022-08-29T15:42:41.388Z,6.13
2022-08-29T15:45:09.654Z,9.50
2022-08-29T15:47:38.390Z,9.20
2022-08-29T15:50:07.887Z,5.75
2022-08-29T15:52:36.024Z,7.88
2022-08-29T15:55:04.430Z,7.68
2022-08-29T15:57:32.170Z,5.90
2022-08-29T15:59:59.925Z,9.00
2022-08-29T16:02:28.280Z,6.05
2022-08-29T16:04:57.339Z,5.95
2022-08-29T16:07:28.939Z,6.15
2022-08-29T16:09:59.657Z,7.97
2022-08-29T16:12:31.395Z,5.50
2022-08-29T16:15:00.703Z,7.32
2022-08-29T16:17:32.502Z,8.13
2022-08-29T16:20:01.386Z,12.75
2022-08-29T16:22:29.418Z,7.05
2022-08-29T16:24:57.931Z,6.22
2022-08-29T16:27:25.895Z,7.88
2022-08-29T16:29:54.081Z,6.05
2022-08-29T16:32:21.853Z,7.85
2022-08-29T16:34:49.484Z,8.45
2022-08-29T16:37:17.165Z,7.82
2022-08-29T16:39:44.798Z,9.30
2022-08-29T16:42:12.440Z,5.45
2022-08-29T16:44:40.600Z,7.93
2022-08-29T16:47:08.254Z,6.60
2022-08-29T16:49:35.960Z,7.28
2022-08-29T16:52:04.150Z,4.95
2022-08-29T16:54:32.285Z,6.72
2022-08-29T16:56:59.913Z,10.48
2022-08-29T16:59:27.550Z,7.03
2022-08-29T17:01:56.259Z,7.45
2022-08-29T17:04:25.473Z,7.63
2022-08-29T17:06:53.209Z,7.32
2022-08-29T17:09:21.398Z,9.43
2022-08-29T17:11:49.681Z,6.93
2022-08-29T17:14:18.767Z,7.57
2022-08-29T17:16:47.869Z,9.00
2022-08-29T17:19:16.024Z,12.35
2022-08-29T17:21:44.515Z,10.23
2022-08-29T17:24:12.236Z,7.95
2022-08-29T17:26:42.141Z,7.72
2022-08-29T17:29:10.136Z,7.13
2022-08-29T17:31:38.822Z,8.10
2022-08-29T17:34:07.979Z,7.68
2022-08-29T17:36:40.522Z,11.10
2022-08-29T17:39:08.610Z,8.63
2022-08-29T17:41:37.419Z,10.13
2022-08-29T17:44:07.013Z,9.35
2022-08-29T17:46:35.318Z,7.53
2022-08-29T17:49:07.673Z,8.77
2022-08-29T17:51:36.156Z,9.07
2022-08-29T17:54:04.544Z,9.55
2022-08-29T17:56:44.635Z,13.68
2022-08-29T17:59:13.247Z,9.23
2022-08-29T18:01:40.986Z,9.27
2022-08-29T18:04:09.042Z,8.45
2022-08-29T18:06:36.791Z,8.98
2022-08-29T18:09:05.506Z,6.82
2022-08-29T18:11:33.170Z,12.73
2022-08-29T18:14:01.161Z,11.10
2022-08-29T18:16:28.843Z,8.73
2022-08-29T18:18:56.542Z,11.43
2022-08-29T18:21:24.190Z,8.77
2022-08-29T18:23:51.842Z,25.33
2022-08-29T18:26:19.504Z,10.23
2022-08-29T18:28:47.672Z,9.43
2022-08-29T18:31:15.569Z,9.23
2022-08-29T18:33:59.995Z,9.53
2022-08-29T18:36:28.028Z,11.73
2022-08-29T18:38:55.629Z,12.30
2022-08-29T18:41:23.237Z,14.50
2022-08-29T18:43:51.860Z,9.55
2022-08-29T18:46:19.549Z,9.80
2022-08-29T18:48:47.605Z,12.35
2022-08-29T18:51:15.239Z,11.00
2022-08-29T18:53:42.898Z,10.73
2022-08-29T18:56:10.627Z,10.55
2022-08-29T18:58:38.870Z,11.75
2022-08-29T19:01:10.881Z,8.18
2022-08-29T19:03:38.640Z,12.73
2022-08-29T19:06:06.622Z,11.55
2022-08-29T19:08:34.266Z,10.70
2022-08-29T19:11:02.407Z,11.32
2022-08-29T19:13:30.741Z,7.38
2022-08-29T19:15:59.278Z,10.00
2022-08-29T19:18:27.633Z,13.00
2022-08-29T19:21:07.893Z,9.18
2022-08-29T19:23:35.522Z,8.70
2022-08-29T19:26:04.597Z,10.88
2022-08-29T19:28:32.557Z,12.38
2022-08-29T19:31:02.236Z,18.60
2022-08-29T19:33:29.900Z,18.55
2022-08-29T19:35:57.553Z,9.48
2022-08-29T19:38:25.233Z,12.70
2022-08-29T19:40:56.401Z,10.63
2022-08-29T19:43:29.635Z,14.65
2022-08-29T19:45:59.028Z,13.55
2022-08-29T19:48:27.018Z,11.57
2022-08-29T19:50:55.154Z,11.48
2022-08-29T19:53:26.614Z,9.45
2022-08-29T19:55:55.707Z,10.98
2022-08-29T19:58:31.599Z,9.57
2022-08-29T20:01:03.572Z,10.30
2022-08-29T20:03:32.158Z,11.82
2022-08-29T20:06:00.128Z,13.50
2022-08-29T20:08:29.319Z,13.73
2022-08-29T20:10:59.126Z,13.27
2022-08-29T20:13:29.269Z,13.88
2022-08-29T20:16:02.222Z,10.27
2022-08-29T20:18:29.938Z,10.80
2022-08-29T20:20:57.558Z,11.07
2022-08-29T20:23:25.194Z,10.90
2022-08-29T20:25:52.957Z,11.13
2022-08-29T20:28:20.658Z,10.77
2022-08-29T20:30:49.866Z,13.95
2022-08-29T20:33:17.831Z,12.45
2022-08-29T20:36:04.237Z,10.07
2022-08-29T20:38:32.232Z,12.98
2022-08-29T20:41:00.538Z,9.55
2022-08-29T20:43:28.746Z,9.65
2022-08-29T20:45:58.245Z,14.35
2022-08-29T20:48:31.062Z,10.57
2022-08-29T20:51:04.517Z,12.10
2022-08-29T20:53:33.608Z,14.02
2022-08-29T20:56:01.891Z,13.02
2022-08-29T20:58:30.094Z,10.57
2022-08-29T21:00:59.526Z,15.43
2022-08-29T21:03:46.318Z,11.55
2022-08-29T21:06:14.102Z,11.23
2022-08-29T21:08:42.246Z,16.13
2022-08-29T21:11:10.277Z,12.57
2022-08-29T21:13:43.363Z,12.23
2022-08-29T21:16:11.814Z,12.50
2022-08-29T21:18:39.588Z,13.43
2022-08-29T21:21:07.678Z,11.40
2022-08-29T21:23:35.311Z,12.82
2022-08-29T21:26:02.946Z,10.07
2022-08-29T21:28:32.785Z,13.60
2022-08-29T21:31:10.720Z,15.85
2022-08-29T21:33:39.558Z,11.93
2022-08-29T21:36:11.416Z,13.30
2022-08-29T21:38:39.175Z,13.05
2022-08-29T21:41:09.323Z,16.55
2022-08-29T21:43:37.543Z,14.60
2022-08-29T21:46:13.833Z,10.35
2022-08-29T21:48:41.522Z,15.63
2022-08-29T21:51:09.817Z,12.85
2022-08-29T21:53:37.763Z,14.95
2022-08-29T21:58:36.642Z,15.05
2022-08-29T22:01:05.025Z,16.95
2022-08-29T22:03:32.673Z,11.57
2022-08-29T22:06:00.297Z,14.20
2022-08-29T22:08:27.930Z,15.90
2022-08-29T22:10:55.558Z,8.60
2022-08-29T22:13:23.183Z,14.52
2022-08-29T22:16:09.752Z,12.85
2022-08-29T22:18:37.562Z,13.57
2022-08-29T22:21:05.877Z,8.55
2022-08-29T22:23:33.470Z,12.05
2022-08-29T22:26:01.320Z,13.82
2022-08-29T22:28:28.929Z,14.10
2022-08-29T22:30:56.609Z,14.40
2022-08-29T22:33:24.248Z,12.35
2022-08-29T22:35:52.850Z,15.35
2022-08-29T22:38:20.486Z,14.07
2022-08-29T22:40:48.899Z,10.35
2022-08-29T22:43:16.738Z,14.70
2022-08-29T22:45:44.573Z,16.70
2022-08-29T22:48:12.238Z,15.30
2022-08-29T22:50:45.927Z,11.70
2022-08-29T22:53:25.622Z,13.63
2022-08-29T22:55:53.225Z,13.68
2022-08-29T22:58:20.865Z,12.68
2022-08-29T23:00:48.792Z,10.85
2022-08-29T23:03:16.755Z,12.23
2022-08-29T23:05:44.462Z,13.82
2022-08-29T23:08:12.225Z,13.13
2022-08-29T23:10:40.026Z,8.32
2022-08-29T23:13:07.654Z,11.88
2022-08-29T23:15:35.527Z,10.88
2022-08-29T23:18:03.445Z,11.57
2022-08-29T23:20:31.109Z,10.65
2022-08-29T23:22:59.578Z,12.75
2022-08-29T23:25:28.464Z,9.32
2022-08-29T23:27:56.146Z,8.38
2022-08-29T23:30:23.842Z,10.80
2022-08-29T23:32:51.497Z,11.10
2022-08-29T23:35:19.266Z,8.27
2022-08-29T23:37:46.897Z,11.48
2022-08-29T23:40:14.770Z,12.18
2022-08-29T23:42:42.558Z,9.65
2022-08-29T23:45:10.866Z,10.02
2022-08-29T23:47:38.510Z,9.77
2022-08-29T23:50:06.568Z,7.90
2022-08-29T23:52:34.216Z,9.10
2022-08-29T23:55:02.434Z,11.57
2022-08-29T23:57:30.151Z,12.15
